Time;durP1;ratioP1;P1;durP2;ratioP2;P2;SDS_P1;SDS_P2;PMS_P1;PMS_P2;Temp;Humidity;BMP_temperature;BMP_pressure;BME280_temperature;BME280_humidity;BME280_pressure;Samples;Min_cycle;Max_cycle;Signal;HPM_P1;HPM_P2
2022/01/06 00:01:53;;;;;;;0.77;0.65;;;2.10;99.90;;;;;;5026385;28;20386;-75
2022/01/06 00:04:18;;;;;;;0.28;0.25;;;2.10;99.90;;;;;;5025006;28;20025;-74
2022/01/06 00:06:45;;;;;;;5.45;0.85;;;2.00;99.90;;;;;;5026648;28;20034;-76
2022/01/06 00:09:14;;;;;;;2.63;0.85;;;2.00;99.90;;;;;;5026247;28;20109;-74
2022/01/06 00:11:41;;;;;;;1.65;0.40;;;1.90;99.90;;;;;;5026509;28;20060;-74
2022/01/06 00:17:00;;;;;;;1.13;0.52;;;1.80;99.90;;;;;;5026797;28;20109;-75
2022/01/06 00:24:54;;;;;;;1.98;0.60;;;1.80;99.90;;;;;;5013335;28;20077;-75
2022/01/06 00:27:20;;;;;;;2.20;0.35;;;1.70;99.90;;;;;;5026333;28;20025;-74
2022/01/06 00:29:45;;;;;;;5.32;0.82;;;1.70;99.90;;;;;;5026302;28;20026;-74
2022/01/06 00:32:11;;;;;;;0.20;0.20;;;1.70;99.90;;;;;;5024591;28;20026;-75
2022/01/06 00:34:37;;;;;;;0.88;0.10;;;1.70;99.90;;;;;;5026169;28;20034;-75
2022/01/06 00:37:09;;;;;;;2.35;0.55;;;1.60;99.90;;;;;;5026520;28;20022;-75
2022/01/06 00:39:34;;;;;;;1.70;0.60;;;1.60;99.90;;;;;;5024491;28;20030;-75
2022/01/06 00:42:01;;;;;;;1.38;0.20;;;1.50;99.90;;;;;;5024551;28;20065;-74
2022/01/06 00:44:26;;;;;;;0.90;0.50;;;1.50;99.90;;;;;;5025874;28;20498;-75
2022/01/06 00:46:52;;;;;;;3.22;0.63;;;1.50;99.90;;;;;;5024251;28;20037;-74
2022/01/06 00:49:20;;;;;;;0.30;0.17;;;1.50;99.90;;;;;;5025865;28;20026;-74
2022/01/06 00:51:46;;;;;;;4.00;0.77;;;1.50;99.90;;;;;;5025609;28;20042;-75
2022/01/06 00:54:13;;;;;;;5.93;0.68;;;1.40;99.90;;;;;;5024206;28;20343;-76
2022/01/06 00:56:39;;;;;;;4.45;0.88;;;1.40;99.90;;;;;;5024535;28;20057;-75
2022/01/06 00:59:04;;;;;;;0.52;0.35;;;1.40;99.90;;;;;;5025573;28;20026;-73
2022/01/06 01:01:30;;;;;;;2.38;0.60;;;1.40;99.90;;;;;;5025280;28;20379;-73
2022/01/06 01:03:57;;;;;;;6.82;0.98;;;1.40;99.90;;;;;;5025432;28;20633;-73
2022/01/06 01:06:22;;;;;;;7.28;0.50;;;1.40;99.90;;;;;;5025638;28;20026;-75
2022/01/06 01:08:48;;;;;;;0.43;0.15;;;1.40;99.90;;;;;;5025241;28;20082;-75
2022/01/06 01:11:14;;;;;;;9.63;0.70;;;1.40;99.90;;;;;;5025038;28;20018;-75
2022/01/06 01:14:17;;;;;;;1.10;0.38;;;1.50;99.90;;;;;;5025644;28;20052;-74
2022/01/06 01:16:31;;;;;;;1.08;0.35;;;1.50;99.90;;;;;;5024762;28;20030;-74
2022/01/06 01:19:00;;;;;;;1.60;0.88;;;1.40;99.90;;;;;;5025472;28;20026;-75
2022/01/06 01:21:27;;;;;;;2.75;0.70;;;1.40;99.90;;;;;;5025583;28;20029;-75
2022/01/06 01:23:57;;;;;;;0.65;0.32;;;1.50;99.90;;;;;;5025009;28;20030;-75
2022/01/06 01:26:23;;;;;;;0.28;0.10;;;1.40;99.90;;;;;;5024220;28;20026;-75
2022/01/06 01:28:51;;;;;;;2.17;0.35;;;1.40;99.90;;;;;;5024673;28;20026;-74
2022/01/06 01:33:43;;;;;;;11.10;0.63;;;1.40;99.90;;;;;;5024985;28;20030;-75
2022/01/06 01:36:09;;;;;;;2.25;0.47;;;1.30;99.90;;;;;;5024997;28;20014;-75
2022/01/06 01:38:37;;;;;;;0.45;0.32;;;1.30;99.90;;;;;;5020410;28;20334;-75
2022/01/06 01:41:04;;;;;;;1.85;0.52;;;1.40;99.90;;;;;;5006280;28;20027;-74
2022/01/06 01:43:30;;;;;;;0.70;0.40;;;1.40;99.90;;;;;;5003805;28;20076;-74
2022/01/06 01:45:58;;;;;;;1.92;0.60;;;1.40;99.90;;;;;;5020002;28;20496;-74
2022/01/06 01:48:33;;;;;;;0.90;0.75;;;1.40;99.90;;;;;;5024802;28;20405;-73
2022/01/06 01:50:59;;;;;;;8.05;0.43;;;1.30;99.90;;;;;;5022910;28;20080;-75
2022/01/06 01:53:25;;;;;;;3.05;1.08;;;1.30;99.90;;;;;;5023048;28;20030;-75
2022/01/06 01:55:51;;;;;;;7.22;0.20;;;1.30;99.90;;;;;;5024995;28;20458;-75
2022/01/06 01:58:18;;;;;;;0.52;0.30;;;1.20;99.90;;;;;;5023160;28;20030;-76
2022/01/06 02:00:43;;;;;;;1.52;0.70;;;1.20;99.90;;;;;;5018715;28;20030;-75
2022/01/06 02:03:09;;;;;;;4.20;0.50;;;1.20;99.90;;;;;;5004888;28;20117;-75
2022/01/06 02:05:35;;;;;;;2.28;1.20;;;1.20;99.90;;;;;;5004630;28;20058;-77
2022/01/06 02:08:02;;;;;;;1.52;0.50;;;1.20;99.90;;;;;;5003935;28;20097;-76
2022/01/06 02:10:29;;;;;;;7.57;1.38;;;1.20;99.90;;;;;;5004631;28;20038;-76
2022/01/06 02:12:57;;;;;;;1.17;0.30;;;1.20;99.90;;;;;;5003210;28;20034;-77
2022/01/06 02:15:22;;;;;;;8.52;0.60;;;1.20;99.90;;;;;;5003554;28;20046;-76
2022/01/06 02:17:48;;;;;;;10.38;0.60;;;1.20;99.90;;;;;;5017747;28;20034;-76
2022/01/06 02:20:17;;;;;;;10.50;0.75;;;1.10;99.90;;;;;;5022680;28;20050;-75
2022/01/06 02:22:43;;;;;;;5.38;0.60;;;1.10;99.90;;;;;;5023182;28;20045;-73
2022/01/06 02:25:17;;;;;;;3.85;0.43;;;1.10;99.90;;;;;;5024145;28;20034;-75
2022/01/06 02:27:45;;;;;;;5.97;0.88;;;1.10;99.90;;;;;;5024224;28;20033;-73
2022/01/06 02:30:12;;;;;;;3.50;0.85;;;1.10;99.90;;;;;;5022916;28;20072;-74
2022/01/06 02:32:38;;;;;;;1.27;0.50;;;1.00;99.90;;;;;;5011918;28;20133;-75
2022/01/06 02:35:12;;;;;;;2.25;0.35;;;1.00;99.90;;;;;;5007813;28;20101;-74
2022/01/06 02:37:37;;;;;;;0.52;0.30;;;1.00;99.90;;;;;;5013738;28;20105;-74
2022/01/06 02:40:12;;;;;;;0.45;0.45;;;1.00;99.90;;;;;;5024519;28;20069;-75
2022/01/06 02:42:48;;;;;;;1.33;0.43;;;1.00;99.90;;;;;;5026612;28;20072;-74
2022/01/06 02:45:14;;;;;;;0.43;0.30;;;1.00;99.90;;;;;;5028329;28;20033;-74
2022/01/06 02:47:41;;;;;;;6.78;0.30;;;1.00;99.90;;;;;;5026917;28;20026;-76
2022/01/06 02:50:09;;;;;;;0.55;0.40;;;1.00;99.90;;;;;;5027963;28;20415;-74
2022/01/06 02:52:35;;;;;;;0.93;0.40;;;1.00;99.90;;;;;;5028091;28;20049;-75
2022/01/06 02:55:02;;;;;;;4.97;0.88;;;1.00;99.90;;;;;;5027113;28;20060;-73
2022/01/06 02:57:28;;;;;;;1.27;0.77;;;1.00;99.90;;;;;;5018962;28;20114;-75
2022/01/06 02:59:53;;;;;;;0.57;0.30;;;1.00;99.90;;;;;;5008387;28;20446;-74
2022/01/06 03:02:19;;;;;;;1.35;0.50;;;1.00;99.90;;;;;;5008021;28;20117;-76
2022/01/06 03:04:44;;;;;;;4.85;0.28;;;1.00;99.90;;;;;;5007967;28;20499;-75
2022/01/06 03:07:10;;;;;;;3.88;0.70;;;0.90;99.90;;;;;;5007757;28;20049;-75
2022/01/06 03:09:41;;;;;;;1.55;0.75;;;0.90;99.90;;;;;;5008565;28;20037;-74
2022/01/06 03:12:24;;;;;;;2.72;0.52;;;0.90;99.90;;;;;;5008035;28;20082;-75
2022/01/06 03:14:50;;;;;;;1.13;0.57;;;0.90;99.90;;;;;;5007847;28;20057;-75
2022/01/06 03:17:18;;;;;;;2.83;0.50;;;0.80;99.90;;;;;;5008201;28;20387;-76
2022/01/06 03:19:44;;;;;;;1.00;0.52;;;0.80;99.90;;;;;;5005846;28;20033;-75
2022/01/06 03:22:10;;;;;;;4.28;0.98;;;0.80;99.90;;;;;;5007887;28;20042;-76
2022/01/06 03:24:35;;;;;;;3.83;0.40;;;0.80;99.90;;;;;;5007731;28;20054;-76
2022/01/06 03:27:01;;;;;;;1.85;0.70;;;0.80;99.90;;;;;;5008010;28;20026;-75
2022/01/06 03:29:27;;;;;;;1.98;0.80;;;0.80;99.90;;;;;;5008018;28;20030;-75
2022/01/06 03:31:52;;;;;;;5.28;0.88;;;0.80;99.90;;;;;;5008163;28;20030;-76
2022/01/06 03:34:18;;;;;;;1.13;0.77;;;0.80;99.90;;;;;;5007170;28;20026;-74
2022/01/06 03:36:44;;;;;;;6.63;2.15;;;0.80;99.90;;;;;;5007250;28;20030;-75
2022/01/06 03:39:09;;;;;;;4.10;0.82;;;0.80;99.90;;;;;;5006501;28;20022;-75
2022/01/06 03:41:38;;;;;;;5.53;0.82;;;0.80;99.90;;;;;;5007486;28;20061;-75
2022/01/06 03:44:04;;;;;;;3.55;1.20;;;0.80;99.90;;;;;;5007652;28;20030;-75
2022/01/06 03:46:30;;;;;;;1.48;0.75;;;0.80;99.90;;;;;;5006405;28;20038;-73
2022/01/06 03:48:55;;;;;;;1.45;0.40;;;0.80;99.90;;;;;;5004833;28;20444;-74
2022/01/06 03:51:23;;;;;;;4.22;0.93;;;0.80;99.90;;;;;;5007374;28;20102;-75
2022/01/06 03:53:50;;;;;;;5.10;1.17;;;0.90;99.90;;;;;;5006401;28;20426;-75
2022/01/06 03:56:15;;;;;;;0.70;0.55;;;0.80;99.90;;;;;;5007079;28;20028;-76
2022/01/06 03:58:41;;;;;;;1.45;1.05;;;1.00;99.90;;;;;;5006108;28;20030;-75
2022/01/06 04:01:07;;;;;;;1.25;0.40;;;1.00;99.90;;;;;;5007134;28;20418;-72
2022/01/06 04:03:34;;;;;;;5.65;0.82;;;1.00;99.90;;;;;;5005846;28;20042;-75
2022/01/06 04:06:03;;;;;;;3.42;1.23;;;1.10;99.90;;;;;;5005888;28;20038;-76
2022/01/06 04:08:28;;;;;;;2.63;0.70;;;1.20;99.90;;;;;;5006648;28;20057;-76
2022/01/06 04:10:54;;;;;;;1.23;0.88;;;1.20;99.90;;;;;;5005460;28;20030;-73
2022/01/06 04:13:20;;;;;;;1.60;0.70;;;1.30;99.90;;;;;;5007181;28;20411;-74
2022/01/06 04:15:46;;;;;;;0.65;0.30;;;1.30;99.90;;;;;;5006414;28;20031;-73
2022/01/06 04:18:11;;;;;;;0.50;0.50;;;1.30;99.90;;;;;;5005596;28;20062;-73
2022/01/06 04:20:37;;;;;;;1.05;0.90;;;1.30;99.90;;;;;;5005631;28;20471;-75
2022/01/06 04:23:04;;;;;;;0.68;0.30;;;1.30;99.90;;;;;;5006734;28;20034;-74
2022/01/06 04:25:29;;;;;;;1.30;0.68;;;1.40;99.90;;;;;;5006693;28;20031;-72
2022/01/06 04:27:55;;;;;;;0.52;0.50;;;1.40;99.90;;;;;;5005201;28;20026;-73
2022/01/06 04:30:21;;;;;;;0.90;0.38;;;1.40;99.90;;;;;;5006265;28;20022;-72
2022/01/06 04:32:46;;;;;;;0.95;0.45;;;1.40;99.90;;;;;;5006934;28;20030;-73
2022/01/06 04:35:12;;;;;;;0.43;0.10;;;1.40;99.90;;;;;;5004691;28;20019;-73
2022/01/06 04:37:38;;;;;;;1.35;0.57;;;1.40;99.90;;;;;;5006235;28;20037;-75
2022/01/06 04:40:09;;;;;;;2.03;0.52;;;1.30;99.90;;;;;;5005556;28;20026;-74
2022/01/06 04:42:35;;;;;;;3.30;0.63;;;1.30;99.90;;;;;;5005075;28;20046;-75
2022/01/06 04:45:00;;;;;;;0.50;0.20;;;1.30;99.90;;;;;;5006060;28;20030;-73
2022/01/06 04:47:26;;;;;;;2.05;0.90;;;1.30;99.90;;;;;;5005014;28;20033;-73
2022/01/06 04:49:52;;;;;;;10.02;0.73;;;1.30;99.90;;;;;;5005448;28;20061;-74
2022/01/06 04:52:17;;;;;;;1.42;0.75;;;1.30;99.90;;;;;;5006066;28;20030;-74
2022/01/06 04:54:43;;;;;;;1.67;0.50;;;1.20;99.90;;;;;;5004859;28;20053;-75
2022/01/06 04:57:09;;;;;;;1.00;0.30;;;1.20;99.90;;;;;;5005738;28;20082;-75
2022/01/06 04:59:34;;;;;;;0.80;0.40;;;1.20;99.90;;;;;;5006169;28;20037;-73
2022/01/06 05:02:00;;;;;;;0.65;0.38;;;1.20;99.90;;;;;;5004643;28;20052;-73
2022/01/06 05:04:25;;;;;;;1.75;0.60;;;1.10;99.90;;;;;;5004109;28;20030;-74
2022/01/06 05:06:51;;;;;;;1.98;0.80;;;1.10;99.90;;;;;;5005466;28;20459;-73
2022/01/06 05:09:18;;;;;;;1.55;0.47;;;1.10;99.90;;;;;;5005402;28;20030;-73
2022/01/06 05:11:43;;;;;;;1.75;0.40;;;1.10;99.90;;;;;;5005235;28;20084;-74
2022/01/06 05:14:10;;;;;;;6.80;0.40;;;1.10;99.90;;;;;;5006016;28;20034;-74
2022/01/06 05:16:35;;;;;;;0.63;0.32;;;1.00;99.90;;;;;;5005312;28;20034;-73
2022/01/06 05:19:01;;;;;;;5.25;0.20;;;1.00;99.90;;;;;;5005781;28;20049;-73
2022/01/06 05:21:29;;;;;;;0.20;0.20;;;1.00;99.90;;;;;;5005995;28;20030;-75
2022/01/06 05:23:55;;;;;;;1.25;0.35;;;1.00;99.90;;;;;;5005501;28;20558;-74
2022/01/06 05:26:21;;;;;;;4.07;0.77;;;1.00;99.90;;;;;;5005349;28;20042;-75
2022/01/06 05:28:47;;;;;;;1.25;0.38;;;1.00;99.90;;;;;;5005411;28;20053;-76
2022/01/06 05:31:13;;;;;;;1.30;0.85;;;1.10;99.90;;;;;;5005316;28;20026;-75
2022/01/06 05:33:38;;;;;;;1.80;1.02;;;1.00;99.90;;;;;;5005677;28;20034;-75
2022/01/06 05:36:04;;;;;;;0.65;0.47;;;1.10;99.90;;;;;;5005324;28;20078;-75
2022/01/06 05:38:30;;;;;;;0.50;0.20;;;1.00;99.90;;;;;;5005093;28;20494;-75
2022/01/06 05:40:56;;;;;;;6.25;1.58;;;1.00;99.90;;;;;;5004204;28;20049;-73
2022/01/06 05:43:22;;;;;;;2.40;0.22;;;1.00;99.90;;;;;;5005091;28;20094;-72
2022/01/06 05:45:51;;;;;;;1.63;1.00;;;1.00;99.90;;;;;;5005364;28;20033;-75
2022/01/06 05:48:16;;;;;;;1.33;0.70;;;1.00;99.90;;;;;;5005321;28;20026;-73
2022/01/06 05:50:42;;;;;;;2.00;1.15;;;1.00;99.90;;;;;;5004766;28;20066;-75
2022/01/06 05:53:08;;;;;;;7.53;1.38;;;1.10;99.90;;;;;;5005645;28;20026;-75
2022/01/06 05:55:34;;;;;;;0.57;0.25;;;1.10;99.90;;;;;;5005484;28;20033;-74
2022/01/06 05:57:59;;;;;;;4.18;0.60;;;1.10;99.90;;;;;;5005120;28;20031;-74
2022/01/06 06:00:25;;;;;;;3.95;0.98;;;1.10;99.90;;;;;;5004567;28;20483;-74
2022/01/06 06:02:51;;;;;;;0.77;0.50;;;1.20;99.90;;;;;;5003216;28;20034;-73
2022/01/06 06:05:16;;;;;;;7.78;1.05;;;1.20;99.90;;;;;;5002787;28;20066;-75
2022/01/06 06:07:42;;;;;;;0.75;0.30;;;1.30;99.90;;;;;;5003570;28;20033;-72
2022/01/06 06:10:08;;;;;;;4.13;1.48;;;1.30;99.90;;;;;;5004003;28;20037;-75
2022/01/06 06:12:34;;;;;;;5.68;2.28;;;1.30;99.90;;;;;;5003442;28;20034;-73
2022/01/06 06:14:59;;;;;;;2.83;0.65;;;1.30;99.90;;;;;;5001037;28;20169;-72
2022/01/06 06:17:25;;;;;;;2.45;1.17;;;1.30;99.90;;;;;;5003356;28;20023;-72
2022/01/06 06:19:51;;;;;;;3.45;1.25;;;1.40;99.90;;;;;;4999955;28;20027;-72
2022/01/06 06:22:16;;;;;;;1.42;0.65;;;1.30;99.90;;;;;;5003820;28;20038;-73
2022/01/06 06:24:44;;;;;;;2.80;0.40;;;1.30;99.90;;;;;;5007171;28;20040;-73
2022/01/06 06:27:10;;;;;;;7.22;1.27;;;1.30;99.90;;;;;;5015721;28;20018;-74
2022/01/06 06:29:37;;;;;;;3.05;0.93;;;1.30;99.90;;;;;;5001259;28;20768;-75
2022/01/06 06:32:04;;;;;;;1.83;1.00;;;1.30;99.90;;;;;;5004915;28;20399;-74
2022/01/06 06:34:29;;;;;;;3.63;0.98;;;1.30;99.90;;;;;;5004200;28;20018;-73
2022/01/06 06:36:55;;;;;;;0.95;0.55;;;1.20;99.90;;;;;;5004648;28;20047;-75
2022/01/06 06:39:21;;;;;;;11.25;0.52;;;1.20;99.90;;;;;;5004302;28;20376;-74
2022/01/06 06:41:47;;;;;;;2.13;0.40;;;1.20;99.90;;;;;;5004514;28;20042;-74
2022/01/06 06:44:13;;;;;;;0.68;0.47;;;1.10;99.90;;;;;;5003667;28;20031;-75
2022/01/06 06:46:39;;;;;;;3.17;0.65;;;1.10;99.90;;;;;;5004489;28;20026;-73
2022/01/06 06:49:04;;;;;;;6.40;0.75;;;1.10;99.90;;;;;;5003986;28;20082;-74
2022/01/06 06:51:30;;;;;;;1.30;0.75;;;1.00;99.90;;;;;;5004336;28;20065;-76
2022/01/06 06:53:56;;;;;;;2.80;0.50;;;1.00;99.90;;;;;;5004425;28;20100;-73
2022/01/06 06:56:21;;;;;;;1.55;0.50;;;1.00;99.90;;;;;;5004826;28;20037;-76
2022/01/06 06:58:47;;;;;;;0.77;0.50;;;0.90;99.90;;;;;;5003046;28;20030;-75
2022/01/06 07:01:17;;;;;;;7.13;0.43;;;0.90;99.90;;;;;;5004426;28;20542;-74
2022/01/06 07:03:43;;;;;;;8.77;0.57;;;0.90;99.90;;;;;;5004444;28;20069;-74
2022/01/06 07:06:09;;;;;;;5.70;0.77;;;0.90;99.90;;;;;;5003659;28;20034;-76
2022/01/06 07:08:35;;;;;;;1.30;0.32;;;0.90;99.90;;;;;;5002171;28;20380;-75
2022/01/06 07:11:00;;;;;;;1.42;0.50;;;1.00;99.90;;;;;;5011375;28;20065;-75
2022/01/06 07:13:26;;;;;;;0.75;0.30;;;0.90;99.90;;;;;;5014263;28;20783;-75
2022/01/06 07:15:52;;;;;;;4.38;0.77;;;0.90;99.90;;;;;;5002766;28;20038;-75
2022/01/06 07:18:17;;;;;;;2.38;0.68;;;0.80;99.90;;;;;;5004330;28;20085;-74
2022/01/06 07:20:43;;;;;;;3.35;0.93;;;0.80;99.90;;;;;;5011659;28;20034;-74
2022/01/06 07:23:09;;;;;;;6.95;0.75;;;0.80;99.90;;;;;;5023304;28;20049;-75
2022/01/06 07:25:35;;;;;;;5.40;1.23;;;0.80;99.90;;;;;;5021306;28;20031;-76
2022/01/06 07:28:00;;;;;;;2.42;0.50;;;0.80;99.90;;;;;;5013920;28;20033;-73
2022/01/06 07:30:26;;;;;;;1.90;0.70;;;0.80;99.90;;;;;;5019267;28;20026;-74
2022/01/06 07:32:52;;;;;;;1.00;0.63;;;0.80;99.90;;;;;;5027355;28;20026;-76
2022/01/06 07:35:21;;;;;;;1.90;0.85;;;0.80;99.90;;;;;;5026759;28;20026;-75
2022/01/06 07:37:48;;;;;;;6.95;0.88;;;0.80;99.90;;;;;;5013688;28;20026;-72
2022/01/06 07:40:14;;;;;;;6.88;0.57;;;0.80;99.90;;;;;;5027556;28;20441;-74
2022/01/06 07:42:46;;;;;;;6.55;1.25;;;0.80;99.90;;;;;;5025639;28;20038;-75
2022/01/06 07:45:12;;;;;;;1.42;0.82;;;0.70;99.90;;;;;;5027378;28;20094;-73
2022/01/06 07:47:54;;;;;;;0.95;0.52;;;0.70;99.90;;;;;;5025999;28;20030;-75
2022/01/06 07:50:20;;;;;;;1.13;0.70;;;0.70;99.90;;;;;;5026181;28;20038;-70
2022/01/06 07:52:45;;;;;;;5.25;0.63;;;0.80;99.90;;;;;;5021363;28;20030;-75
2022/01/06 07:55:18;;;;;;;4.95;1.23;;;0.70;99.90;;;;;;5014087;28;20023;-74
2022/01/06 07:57:44;;;;;;;5.03;0.77;;;0.70;99.90;;;;;;5020643;28;20034;-73
2022/01/06 08:00:10;;;;;;;8.13;1.65;;;0.80;99.90;;;;;;5026530;28;20160;-76
2022/01/06 08:02:36;;;;;;;2.80;1.30;;;0.80;99.90;;;;;;5006650;28;20110;-74
2022/01/06 08:05:02;;;;;;;12.57;1.35;;;0.80;99.90;;;;;;5006041;28;20034;-74
2022/01/06 08:07:27;;;;;;;2.70;1.25;;;0.80;99.90;;;;;;5007322;28;20034;-76
2022/01/06 08:09:53;;;;;;;12.93;1.52;;;0.90;99.90;;;;;;5006964;28;20034;-75
2022/01/06 08:12:18;;;;;;;1.63;1.15;;;1.00;99.90;;;;;;5018872;28;20038;-76
2022/01/06 08:14:44;;;;;;;4.93;1.67;;;1.20;99.90;;;;;;5021517;28;20030;-75
2022/01/06 08:17:10;;;;;;;3.70;1.30;;;1.40;99.90;;;;;;5026676;28;20037;-73
2022/01/06 08:19:36;;;;;;;12.52;2.00;;;1.60;99.90;;;;;;5026566;28;20026;-74
2022/01/06 08:22:11;;;;;;;5.80;1.67;;;1.90;99.90;;;;;;5019123;28;20041;-76
2022/01/06 08:24:36;;;;;;;2.53;1.27;;;2.00;99.90;;;;;;5021496;28;20072;-74
2022/01/06 08:27:08;;;;;;;2.42;1.08;;;2.30;99.90;;;;;;5026271;28;20034;-74
2022/01/06 08:29:36;;;;;;;3.35;2.42;;;2.50;99.90;;;;;;5006030;28;20422;-75
2022/01/06 08:32:02;;;;;;;5.40;1.25;;;2.70;99.90;;;;;;5021081;28;20037;-72
2022/01/06 08:34:28;;;;;;;2.50;1.05;;;2.80;99.90;;;;;;5006018;28;20057;-77
2022/01/06 08:36:54;;;;;;;5.38;1.27;;;2.90;99.90;;;;;;5005398;28;20052;-77
2022/01/06 08:39:20;;;;;;;2.03;1.10;;;3.00;99.90;;;;;;5017248;28;20033;-75
2022/01/06 08:41:46;;;;;;;2.13;0.90;;;3.20;99.90;;;;;;5005606;28;20078;-76
2022/01/06 08:44:13;;;;;;;8.50;1.33;;;3.40;99.90;;;;;;5003942;28;20050;-76
2022/01/06 08:46:38;;;;;;;11.50;0.95;;;3.50;99.90;;;;;;5003681;28;20023;-75
2022/01/06 08:49:06;;;;;;;1.33;1.23;;;3.60;99.90;;;;;;5003812;28;20026;-76
2022/01/06 08:51:32;;;;;;;6.03;1.70;;;3.70;99.90;;;;;;5004921;28;20050;-75
2022/01/06 08:53:58;;;;;;;6.57;1.80;;;3.70;99.90;;;;;;5004552;28;20046;-75
2022/01/06 08:56:24;;;;;;;5.75;1.45;;;3.70;99.90;;;;;;5003535;28;20493;-75
2022/01/06 08:58:50;;;;;;;11.38;1.33;;;3.70;99.90;;;;;;5004822;28;20038;-75
2022/01/06 09:01:16;;;;;;;1.90;1.50;;;3.70;99.90;;;;;;5004624;28;20502;-76
2022/01/06 09:03:41;;;;;;;4.68;1.42;;;3.60;99.90;;;;;;5003475;28;20065;-75
2022/01/06 09:06:07;;;;;;;5.10;1.17;;;3.70;99.90;;;;;;5004256;28;20037;-74
2022/01/06 09:08:32;;;;;;;3.75;0.93;;;3.60;99.90;;;;;;5004030;28;20022;-75
2022/01/06 09:10:58;;;;;;;1.38;0.73;;;3.80;99.90;;;;;;5010015;28;20022;-75
2022/01/06 09:13:24;;;;;;;8.45;1.75;;;3.70;99.90;;;;;;5017597;28;20125;-78
2022/01/06 09:15:49;;;;;;;2.22;1.02;;;3.70;99.90;;;;;;5021410;28;20021;-75
2022/01/06 09:18:15;;;;;;;6.43;0.85;;;3.70;99.90;;;;;;5023470;28;20033;-76
2022/01/06 09:20:42;;;;;;;4.38;1.88;;;3.70;99.90;;;;;;5016802;28;20022;-77
2022/01/06 09:23:07;;;;;;;0.82;0.77;;;3.90;99.90;;;;;;5021795;28;20077;-77
2022/01/06 09:25:33;;;;;;;12.10;2.47;;;4.10;99.90;;;;;;5021885;28;20033;-76
2022/01/06 09:27:58;;;;;;;2.40;1.15;;;4.50;99.90;;;;;;5022943;28;20052;-78
2022/01/06 09:30:25;;;;;;;1.42;1.08;;;4.80;99.90;;;;;;5022828;28;20030;-79
2022/01/06 09:32:53;;;;;;;3.50;0.70;;;5.20;99.90;;;;;;5013698;28;20030;-77
2022/01/06 09:35:19;;;;;;;6.45;1.00;;;5.40;99.90;;;;;;5015956;28;20029;-77
2022/01/06 09:37:45;;;;;;;11.52;1.63;;;5.50;99.90;;;;;;5017568;28;20041;-73
2022/01/06 09:40:12;;;;;;;5.65;1.25;;;5.70;99.90;;;;;;5021194;28;20030;-76
2022/01/06 09:42:41;;;;;;;7.28;1.95;;;5.80;99.90;;;;;;5019735;28;20045;-74
2022/01/06 09:45:17;;;;;;;5.18;1.55;;;6.10;99.90;;;;;;5020397;28;20049;-77
2022/01/06 09:47:49;;;;;;;2.15;0.77;;;6.30;99.90;;;;;;5015147;28;20076;-75
2022/01/06 09:50:14;;;;;;;3.58;0.95;;;6.50;99.90;;;;;;5010227;28;20062;-76
2022/01/06 09:52:40;;;;;;;2.05;0.77;;;6.80;99.90;;;;;;5013274;28;20037;-73
2022/01/06 09:55:07;;;;;;;1.27;0.70;;;7.00;99.90;;;;;;5023673;28;20037;-78
2022/01/06 09:57:33;;;;;;;8.00;1.20;;;7.20;99.90;;;;;;5011888;28;20479;-76
2022/01/06 10:00:00;;;;;;;13.20;1.77;;;7.40;99.90;;;;;;5022806;28;20056;-76
2022/01/06 10:02:37;;;;;;;15.48;2.03;;;7.60;99.90;;;;;;5021631;28;20048;-77
2022/01/06 10:05:04;;;;;;;5.93;1.00;;;7.70;99.90;;;;;;5018804;28;20112;-74
2022/01/06 10:07:39;;;;;;;13.85;0.98;;;7.70;99.90;;;;;;5010254;28;20057;-75
2022/01/06 10:10:08;;;;;;;2.28;1.00;;;7.70;99.90;;;;;;5023154;28;20175;-76
2022/01/06 10:12:35;;;;;;;8.85;1.38;;;7.70;99.90;;;;;;5023399;28;20026;-78
2022/01/06 10:15:01;;;;;;;5.07;0.93;;;7.70;99.90;;;;;;5023418;28;20044;-75
2022/01/06 10:17:33;;;;;;;2.92;0.93;;;7.70;99.90;;;;;;5016894;28;20120;-79
2022/01/06 10:20:13;;;;;;;4.30;1.65;;;7.60;99.90;;;;;;5004808;28;20037;-77
2022/01/06 10:22:48;;;;;;;6.13;1.75;;;7.70;99.90;;;;;;5016897;28;20070;-77
2022/01/06 10:25:14;;;;;;;3.63;1.17;;;7.90;99.90;;;;;;5005506;28;20491;-76
2022/01/06 10:27:41;;;;;;;13.77;1.67;;;8.10;99.90;;;;;;5016604;28;20029;-77
2022/01/06 10:30:08;;;;;;;1.55;1.10;;;8.30;99.90;;;;;;5005826;28;20045;-76
2022/01/06 10:32:37;;;;;;;3.88;1.65;;;8.60;99.90;;;;;;5003031;28;20019;-75
2022/01/06 10:35:07;;;;;;;8.63;1.80;;;9.00;99.90;;;;;;5005743;28;20533;-76
2022/01/06 10:37:43;;;;;;;5.75;1.45;;;9.20;99.90;;;;;;5017857;28;20030;-78
2022/01/06 10:40:18;;;;;;;5.22;1.17;;;9.00;99.90;;;;;;5022257;28;20514;-75
2022/01/06 10:42:57;;;;;;;6.07;1.58;;;9.00;99.90;;;;;;5015586;28;20049;-75
2022/01/06 10:45:26;;;;;;;3.95;1.27;;;9.10;99.90;;;;;;5020263;28;20048;-75
2022/01/06 10:48:00;;;;;;;2.92;1.40;;;9.20;99.90;;;;;;5021091;28;20026;-75
2022/01/06 10:50:30;;;;;;;;;;;9.20;99.90;;;;;;5023014;28;20050;-78
2022/01/06 10:52:57;;;;;;;7.13;1.00;;;9.10;99.90;;;;;;5022335;28;19912;-75
2022/01/06 10:55:31;;;;;;;12.38;2.15;;;9.00;99.90;;;;;;5006546;28;20033;-76
2022/01/06 10:58:19;;;;;;;7.78;1.42;;;9.20;99.90;;;;;;5001826;28;20034;-77
2022/01/06 11:00:57;;;;;;;5.72;1.00;;;9.30;99.90;;;;;;5007445;28;20049;-75
2022/01/06 11:03:26;;;;;;;13.35;1.40;;;9.50;99.90;;;;;;5016659;28;20038;-75
2022/01/06 11:06:03;;;;;;;3.00;1.45;;;9.90;99.90;;;;;;5008276;28;20056;-76
2022/01/06 11:08:32;;;;;;;10.75;2.03;;;10.20;99.90;;;;;;5013221;28;20022;-75
2022/01/06 11:12:26;;;;;;;5.47;2.25;;;10.50;99.90;;;;;;5006093;28;20141;-73
2022/01/06 11:13:49;;;;;;;9.20;1.58;;;10.90;99.90;;;;;;5015019;28;20050;-76
2022/01/06 11:16:19;;;;;;;5.93;1.65;;;11.40;99.90;;;;;;5011668;28;20383;-76
2022/01/06 11:18:52;;;;;;;9.40;1.67;;;11.70;99.90;;;;;;5006055;28;20022;-76
2022/01/06 11:21:40;;;;;;;5.88;1.27;;;11.50;99.90;;;;;;5016635;28;20060;-77
2022/01/06 11:24:13;;;;;;;3.65;1.05;;;11.50;99.90;;;;;;5029630;28;20038;-79
2022/01/06 11:26:42;;;;;;;10.87;1.27;;;11.40;99.90;;;;;;5015297;28;20034;-76
2022/01/06 11:29:10;;;;;;;7.30;1.83;;;11.50;99.90;;;;;;5040996;28;20026;-77
2022/01/06 11:31:40;;;;;;;8.13;1.88;;;11.60;99.90;;;;;;5026069;28;20060;-77
2022/01/06 11:34:15;;;;;;;10.18;1.58;;;11.70;99.90;;;;;;5024823;28;20088;-76
2022/01/06 11:36:42;;;;;;;5.85;1.30;;;11.80;99.90;;;;;;5021530;28;20937;-76
2022/01/06 11:39:26;;;;;;;2.55;1.08;;;12.10;99.90;;;;;;5018348;28;20030;-77
2022/01/06 11:41:53;;;;;;;11.35;1.80;;;12.40;99.90;;;;;;5026653;28;20030;-77
2022/01/06 11:44:44;;;;;;;3.22;1.08;;;12.00;99.90;;;;;;5019883;28;20041;-77
2022/01/06 11:47:12;;;;;;;7.32;1.45;;;11.90;99.90;;;;;;5016265;28;20026;-78
2022/01/06 11:49:43;;;;;;;2.85;1.23;;;11.80;99.90;;;;;;5013466;28;20030;-77
2022/01/06 11:52:16;;;;;;;7.57;1.33;;;11.90;99.90;;;;;;5025103;28;20054;-76
2022/01/06 11:54:51;;;;;;;5.22;1.40;;;12.00;99.90;;;;;;5018726;28;20038;-78
2022/01/06 11:57:33;;;;;;;;;;;12.30;99.90;;;;;;5005405;28;20117;-77
2022/01/06 12:00:20;;;;;;;6.30;0.98;;;12.40;99.90;;;;;;5005317;28;19909;-76
2022/01/06 12:03:07;;;;;;;5.05;1.45;;;12.50;99.90;;;;;;5003573;28;20085;-77
2022/01/06 12:05:44;;;;;;;4.95;1.27;;;12.20;99.90;;;;;;5003784;28;20061;-76
2022/01/06 12:08:10;;;;;;;4.18;0.82;;;12.40;99.90;;;;;;5017049;28;20038;-75
2022/01/06 12:10:43;;;;;;;6.22;1.40;;;12.20;99.90;;;;;;5022790;28;20690;-76
2022/01/06 12:13:09;;;;;;;7.73;1.03;;;11.90;99.90;;;;;;5023852;28;20026;-77
2022/01/06 12:16:06;;;;;;;6.25;1.20;;;11.80;99.90;;;;;;5022043;28;20073;-77
2022/01/06 12:18:32;;;;;;;1.60;0.80;;;11.90;99.90;;;;;;5021428;28;20092;-76
2022/01/06 12:20:58;;;;;;;2.92;1.10;;;12.00;99.90;;;;;;5018099;28;20034;-76
2022/01/06 12:23:25;;;;;;;8.18;1.40;;;11.80;99.90;;;;;;5012398;28;20733;-77
2022/01/06 12:26:00;;;;;;;1.17;0.80;;;11.50;99.90;;;;;;5022250;28;20033;-78
2022/01/06 12:28:27;;;;;;;3.45;1.02;;;11.50;99.90;;;;;;5014665;28;20069;-78
2022/01/06 12:31:03;;;;;;;7.55;1.08;;;11.70;99.90;;;;;;5021746;28;20026;-78
2022/01/06 12:33:31;;;;;;;5.07;1.27;;;11.60;99.90;;;;;;5021832;28;20041;-78
2022/01/06 12:35:58;;;;;;;3.70;1.20;;;11.20;99.90;;;;;;5025388;28;20037;-79
2022/01/06 12:38:26;;;;;;;4.65;1.80;;;11.00;99.90;;;;;;5018129;28;20505;-78
2022/01/06 12:40:53;;;;;;;7.95;1.58;;;11.10;99.90;;;;;;5021853;28;20030;-76
2022/01/06 12:43:25;;;;;;;2.13;0.95;;;11.20;99.90;;;;;;5009550;28;20403;-78
2022/01/06 12:46:09;;;;;;;4.25;1.27;;;11.20;99.90;;;;;;5003787;28;20026;-77
2022/01/06 12:48:50;;;;;;;7.22;1.67;;;11.20;99.90;;;;;;5004975;28;20038;-76
2022/01/06 12:51:20;;;;;;;2.63;0.68;;;11.60;99.90;;;;;;5004331;28;20054;-78
2022/01/06 12:53:49;;;;;;;15.70;1.40;;;11.90;99.90;;;;;;5006979;28;20038;-77
2022/01/06 12:56:23;;;;;;;8.93;1.48;;;11.90;99.90;;;;;;5013435;28;20045;-75
2022/01/06 12:58:49;;;;;;;6.82;1.45;;;12.10;99.90;;;;;;5003971;28;20096;-75
2022/01/06 13:01:21;;;;;;;1.48;0.80;;;12.00;99.90;;;;;;5006636;28;20026;-77
2022/01/06 13:03:51;;;;;;;1.63;0.85;;;12.00;99.90;;;;;;5036433;28;20053;-75
2022/01/06 13:06:17;;;;;;;3.70;1.33;;;12.10;99.90;;;;;;5003754;28;20037;-76
2022/01/06 13:08:55;;;;;;;9.07;0.75;;;12.00;99.90;;;;;;5021117;28;20029;-74
2022/01/06 13:11:22;;;;;;;4.53;1.15;;;12.00;99.90;;;;;;5024161;28;20441;-76